createdAt,value
2015-06-29T07:41:07.401Z,80
2015-06-29T07:41:25.573Z,85
2015-06-29T07:41:44.042Z,92
2015-06-29T07:42:04.528Z,81
2015-06-29T07:42:23.185Z,109
2015-06-29T07:42:41.528Z,119
2015-06-29T07:42:59.905Z,123
2015-06-29T07:43:18.312Z,130
2015-06-29T07:43:36.671Z,134
2015-06-29T07:43:55.343Z,138
2015-06-29T07:44:13.752Z,144
2015-06-29T07:44:32.096Z,150
2015-06-29T07:44:50.580Z,156
2015-06-29T07:45:08.943Z,150
2015-06-29T07:45:27.411Z,144
2015-06-29T07:45:45.927Z,139
2015-06-29T07:46:04.646Z,131
2015-06-29T07:46:23.304Z,130
2015-06-29T07:46:41.382Z,131
2015-06-29T07:46:59.773Z,137
2015-06-29T07:47:18.134Z,135
2015-06-29T07:47:36.525Z,121
2015-06-29T07:47:55.165Z,109
2015-06-29T07:48:13.275Z,113
2015-06-29T07:48:34.730Z,105
2015-06-29T07:48:53.121Z,98
2015-06-29T07:49:11.558Z,99
2015-06-29T07:49:29.936Z,97
2015-06-29T07:49:48.530Z,85
2015-06-29T07:50:06.936Z,85
2015-06-29T07:50:25.360Z,81
2015-06-29T07:50:43.907Z,81
2015-06-29T07:51:02.235Z,73
2015-06-29T07:51:20.751Z,75
2015-06-29T07:51:39.207Z,76
2015-06-29T07:51:57.629Z,79
2015-06-29T07:52:16.082Z,78
2015-06-29T07:52:34.553Z,87
2015-06-29T07:52:52.928Z,86
2015-06-29T07:53:11.507Z,85
2015-06-29T07:53:29.772Z,85
2015-06-29T07:53:48.274Z,100
2015-06-29T07:54:07.305Z,110
2015-06-29T07:54:25.743Z,110
2015-06-29T07:54:44.199Z,118
2015-06-29T07:55:02.621Z,120
2015-06-29T07:55:21.043Z,124
2015-06-29T07:55:39.480Z,119
2015-06-29T07:55:58.107Z,128
2015-06-29T07:56:16.389Z,123
2015-06-29T07:56:34.998Z,124
2015-06-29T07:56:53.500Z,116
2015-06-29T07:57:11.875Z,92
2015-06-29T07:57:30.687Z,91
2015-06-29T07:57:48.750Z,85
2015-06-29T07:58:07.253Z,92
2015-06-29T07:58:25.628Z,101
2015-06-29T07:58:44.128Z,120
2015-06-29T07:59:02.646Z,139
2015-06-29T07:59:20.380Z,145
2015-06-29T07:59:38.958Z,153
2015-06-29T07:59:57.411Z,150
2015-06-29T08:00:15.274Z,153
2015-06-29T08:00:33.649Z,146
2015-06-29T08:00:51.414Z,148
2015-06-29T08:01:09.932Z,155
2015-06-29T08:01:28.307Z,157
2015-06-29T08:01:47.119Z,151
2015-06-29T08:02:05.197Z,149
2015-06-29T08:02:23.732Z,142
2015-06-29T08:02:42.263Z,141
2015-06-29T08:03:00.685Z,141
2015-06-29T08:03:19.109Z,144
2015-06-29T08:03:37.468Z,131
2015-06-29T08:03:55.999Z,124
2015-06-29T08:04:15.421Z,123
2015-06-29T08:04:33.784Z,112
2015-06-29T08:04:52.174Z,107
2015-06-29T08:05:09.268Z,112
2015-06-29T08:05:27.926Z,121
2015-06-29T08:05:46.442Z,104
2015-06-29T08:06:04.911Z,117
2015-06-29T08:06:23.442Z,124
2015-06-29T08:06:41.164Z,100
2015-06-29T08:06:59.617Z,98
2015-06-29T08:07:17.992Z,97
2015-06-29T08:07:36.416Z,90
2015-06-29T08:07:54.150Z,122
2015-06-29T08:08:12.525Z,117
2015-06-29T08:08:31.041Z,97
2015-06-29T08:08:48.762Z,99
2015-06-29T08:09:06.481Z,121
2015-06-29T08:09:24.981Z,126
2015-06-29T08:09:42.762Z,123
2015-06-29T08:10:01.139Z,130
2015-06-29T08:10:19.655Z,120
2015-06-29T08:10:38.046Z,121
2015-06-29T08:10:56.627Z,102
2015-06-29T08:11:14.345Z,107
2015-06-29T08:11:32.767Z,105
2015-06-29T08:11:51.238Z,106
2015-06-29T08:12:08.957Z,95
2015-06-29T08:12:26.832Z,104
2015-06-29T08:12:45.207Z,89
2015-06-29T08:13:03.585Z,102
2015-06-29T08:13:21.960Z,99
2015-06-29T08:13:40.335Z,99
2015-06-29T08:13:58.727Z,102
2015-06-29T08:14:17.102Z,101
2015-06-29T08:14:35.477Z,104
2015-06-29T08:14:53.852Z,100
2015-06-29T08:15:12.246Z,96
2015-06-29T08:15:30.621Z,86
2015-06-29T08:15:48.996Z,89
2015-06-29T08:16:07.373Z,87
2015-06-29T08:16:25.748Z,100
2015-06-29T08:16:43.482Z,108
2015-06-29T08:17:01.201Z,106
2015-06-29T08:17:18.923Z,100
2015-06-29T08:17:37.298Z,99
2015-06-29T08:17:55.017Z,88
2015-06-29T08:18:13.409Z,81
2015-06-29T08:18:31.784Z,80
2015-06-29T08:18:49.503Z,79
2015-06-29T08:19:07.878Z,69
2015-06-29T08:19:26.256Z,77
2015-06-29T08:19:44.631Z,75
2015-06-29T08:20:03.006Z,78
2015-06-29T08:20:21.398Z,80
2015-06-29T08:20:39.757Z,89
2015-06-29T08:20:58.132Z,94
2015-06-29T08:21:16.507Z,102
2015-06-29T08:21:34.230Z,106
2015-06-29T08:21:52.620Z,110
2015-06-29T08:22:10.339Z,99
2015-06-29T08:22:28.714Z,112
2015-06-29T08:22:47.091Z,108
2015-06-29T08:23:05.466Z,110
2015-06-29T08:23:23.841Z,124
2015-06-29T08:23:42.234Z,104
2015-06-29T08:24:00.609Z,104
2015-06-29T08:24:18.984Z,92
2015-06-29T08:24:37.376Z,100
2015-06-29T08:24:55.751Z,103
2015-06-29T08:25:14.126Z,113
2015-06-29T08:25:32.501Z,107
2015-06-29T08:25:50.895Z,91
2015-06-29T08:26:09.270Z,81
2015-06-29T08:26:27.661Z,71
2015-06-29T08:26:46.022Z,80
2015-06-29T08:27:04.397Z,82
2015-06-29T08:27:22.772Z,87
2015-06-29T08:27:41.225Z,86
2015-06-29T08:27:59.931Z,85
2015-06-29T08:28:18.213Z,89
2015-06-29T08:28:36.634Z,98
2015-06-29T08:28:55.011Z,96
2015-06-29T08:29:13.511Z,96
2015-06-29T08:29:31.886Z,96
2015-06-29T08:29:50.261Z,94
2015-06-29T08:30:08.749Z,101
2015-06-29T08:30:27.171Z,136
2015-06-29T08:30:45.561Z,147
2015-06-29T08:31:03.938Z,177
2015-06-29T08:31:22.313Z,163
2015-06-29T08:31:40.688Z,157
2015-06-29T08:31:58.407Z,156
2015-06-29T08:32:16.801Z,159
2015-06-29T08:32:34.676Z,149
2015-06-29T08:32:53.066Z,137
2015-06-29T08:33:10.850Z,133
2015-06-29T08:33:29.740Z,135
2015-06-29T08:33:48.146Z,135
2015-06-29T08:34:06.662Z,103
2015-06-29T08:34:24.415Z,78
2015-06-29T08:34:42.931Z,79
2015-06-29T08:35:01.306Z,102
2015-06-29T08:35:19.776Z,95
2015-06-29T08:35:37.495Z,87
2015-06-29T08:35:55.964Z,101
2015-06-29T08:36:14.339Z,127
2015-06-29T08:36:32.733Z,135
2015-06-29T08:36:51.233Z,152
2015-06-29T08:37:09.717Z,168
2015-06-29T08:37:28.188Z,186
2015-06-29T08:37:46.703Z,183
2015-06-29T08:38:05.078Z,161
2015-06-29T08:38:23.703Z,149
2015-06-29T08:38:41.988Z,191
2015-06-29T08:39:00.581Z,199
2015-06-29T08:39:18.956Z,198
2015-06-29T08:39:37.380Z,191
2015-06-29T08:39:55.786Z,186
2015-06-29T08:40:14.208Z,180
2015-06-29T08:40:32.802Z,170
2015-06-29T08:40:51.117Z,149
2015-06-29T08:41:09.617Z,152
2015-06-29T08:41:28.413Z,147
2015-06-29T08:41:46.495Z,157
2015-06-29T08:42:04.885Z,156
2015-06-29T08:42:23.276Z,151
2015-06-29T08:42:41.635Z,155
2015-06-29T08:43:00.012Z,138
2015-06-29T08:43:18.387Z,136
2015-06-29T08:43:36.887Z,134
2015-06-29T08:43:55.264Z,124
2015-06-29T08:44:13.655Z,116
2015-06-29T08:44:32.030Z,119
2015-06-29T08:44:49.608Z,121
2015-06-29T08:45:08.190Z,109
2015-06-29T08:45:26.471Z,146
2015-06-29T08:45:44.987Z,135
2015-06-29T08:46:02.833Z,105
2015-06-29T08:46:21.317Z,101
2015-06-29T08:46:39.926Z,142
2015-06-29T08:46:58.192Z,189
2015-06-29T08:47:16.819Z,182
2015-06-29T08:47:35.100Z,194
2015-06-29T08:47:53.569Z,187
2015-06-29T08:48:12.056Z,178
2015-06-29T08:48:30.510Z,201
